KLM17V EHAM-ELLX
Flight info
| Callsign | KLM17V |
|---|---|
| Flight time | 0h 54m |
| Altitude | 23000 |
| Route | LOPIK N852 LNO |
| Aircraft | B738/M-SDE2E3FGHIRWXY/LB1 |
Departure
| Time | 2026-04-28 10:35 |
|---|---|
| Airport | Amsterdam Airport Schiphol (EHAM) |
Arrival
| Time | 2026-04-28 11:29 |
|---|---|
| Airport | Luxembourg-Findel International Airport (ELLX) |
| Time | Latitude | Longitude | Altitude | Speed | Heading |
|---|---|---|---|---|---|
| 2026-04-28 10:12 | 52.31004 | 4.77314 | -2 ft | 0 kts | 182° |
| 2026-04-28 10:20 | 52.31006 | 4.77314 | -2 ft | 3 kts | 182° |
| 2026-04-28 10:20 | 52.31032 | 4.77314 | -2 ft | 4 kts | 172° |
| 2026-04-28 10:21 | 52.31057 | 4.77303 | -2 ft | 4 kts | 150° |
| 2026-04-28 10:21 | 52.31073 | 4.77277 | -2 ft | 3 kts | 96° |
| 2026-04-28 10:21 | 52.31074 | 4.77273 | -2 ft | 1 kts | 93° |
| 2026-04-28 10:23 | 52.31073 | 4.77290 | -2 ft | 5 kts | 95° |
| 2026-04-28 10:24 | 52.31071 | 4.77383 | -2 ft | 10 kts | 91° |
| 2026-04-28 10:24 | 52.31043 | 4.77494 | -2 ft | 11 kts | 117° |
| 2026-04-28 10:24 | 52.31052 | 4.77604 | -2 ft | 11 kts | 38° |
| 2026-04-28 10:24 | 52.31123 | 4.77629 | -2 ft | 10 kts | 3° |
| 2026-04-28 10:25 | 52.31194 | 4.77638 | -2 ft | 10 kts | 5° |
| 2026-04-28 10:25 | 52.31263 | 4.77643 | -2 ft | 10 kts | 2° |
| 2026-04-28 10:25 | 52.31342 | 4.77652 | -2 ft | 15 kts | 2° |
| 2026-04-28 10:25 | 52.31470 | 4.77612 | -2 ft | 23 kts | 327° |
| 2026-04-28 10:26 | 52.31575 | 4.77357 | -2 ft | 32 kts | 272° |
| 2026-04-28 10:26 | 52.31565 | 4.76987 | -2 ft | 32 kts | 266° |
| 2026-04-28 10:26 | 52.31551 | 4.76631 | -2 ft | 31 kts | 266° |
| 2026-04-28 10:26 | 52.31541 | 4.76300 | -2 ft | 28 kts | 266° |
| 2026-04-28 10:27 | 52.31531 | 4.75998 | -2 ft | 26 kts | 266° |
| 2026-04-28 10:27 | 52.31521 | 4.75715 | -2 ft | 24 kts | 266° |
| 2026-04-28 10:27 | 52.31512 | 4.75451 | -2 ft | 23 kts | 268° |
| 2026-04-28 10:27 | 52.31501 | 4.75197 | -2 ft | 22 kts | 267° |
| 2026-04-28 10:28 | 52.31494 | 4.74949 | -2 ft | 22 kts | 268° |
| 2026-04-28 10:28 | 52.31487 | 4.74708 | -2 ft | 21 kts | 266° |
| 2026-04-28 10:28 | 52.31479 | 4.74475 | -2 ft | 20 kts | 267° |
| 2026-04-28 10:29 | 52.31618 | 4.74308 | -2 ft | 15 kts | 2° |
| 2026-04-28 10:29 | 52.31719 | 4.74314 | -2 ft | 14 kts | 2° |
| 2026-04-28 10:29 | 52.31815 | 4.74322 | -2 ft | 14 kts | 4° |
| 2026-04-28 10:29 | 52.31908 | 4.74330 | -2 ft | 13 kts | 3° |
| 2026-04-28 10:30 | 52.31995 | 4.74330 | -2 ft | 12 kts | 335° |
| 2026-04-28 10:30 | 52.32032 | 4.74222 | -2 ft | 12 kts | 271° |
| 2026-04-28 10:30 | 52.32033 | 4.74092 | -2 ft | 11 kts | 274° |
| 2026-04-28 10:30 | 52.32040 | 4.73945 | -3 ft | 15 kts | 275° |
| 2026-04-28 10:31 | 52.32048 | 4.73758 | -2 ft | 18 kts | 275° |
| 2026-04-28 10:31 | 52.32059 | 4.73526 | -2 ft | 22 kts | 275° |
| 2026-04-28 10:31 | 52.32133 | 4.73296 | -2 ft | 25 kts | 317° |
| 2026-04-28 10:31 | 52.32270 | 4.73102 | -2 ft | 27 kts | 316° |
| 2026-04-28 10:32 | 52.32421 | 4.72891 | -2 ft | 30 kts | 319° |
| 2026-04-28 10:32 | 52.32579 | 4.72664 | -2 ft | 32 kts | 319° |
| 2026-04-28 10:32 | 52.32741 | 4.72407 | -2 ft | 34 kts | 310° |
| 2026-04-28 10:32 | 52.32899 | 4.72111 | -2 ft | 35 kts | 312° |
| 2026-04-28 10:33 | 52.33062 | 4.71804 | -2 ft | 36 kts | 312° |
| 2026-04-28 10:33 | 52.33121 | 4.71494 | -2 ft | 29 kts | 229° |
| 2026-04-28 10:33 | 52.32973 | 4.71277 | -2 ft | 28 kts | 220° |
| 2026-04-28 10:33 | 52.32863 | 4.71041 | -3 ft | 26 kts | 256° |
| 2026-04-28 10:34 | 52.32971 | 4.70901 | -4 ft | 24 kts | 5° |
| 2026-04-28 10:34 | 52.33166 | 4.70919 | -5 ft | 48 kts | 4° |
| 2026-04-28 10:34 | 52.33710 | 4.70978 | -1 ft | 109 kts | 4° |
| 2026-04-28 10:34 | 52.34642 | 4.71022 | 96 ft | 147 kts | 2° |
| 2026-04-28 10:35 | 52.35662 | 4.71089 | 650 ft | 152 kts | 8° |
| 2026-04-28 10:35 | 52.36760 | 4.71174 | 1207 ft | 163 kts | 6° |
| 2026-04-28 10:35 | 52.37892 | 4.71164 | 1796 ft | 171 kts | 9° |
| 2026-04-28 10:35 | 52.39197 | 4.71312 | 2110 ft | 199 kts | 13° |
| 2026-04-28 10:36 | 52.40565 | 4.71867 | 2410 ft | 205 kts | 35° |
| 2026-04-28 10:36 | 52.41599 | 4.73423 | 2907 ft | 204 kts | 59° |
| 2026-04-28 10:36 | 52.42096 | 4.75604 | 3506 ft | 208 kts | 84° |
| 2026-04-28 10:36 | 52.41909 | 4.77902 | 4327 ft | 210 kts | 110° |
| 2026-04-28 10:37 | 52.41017 | 4.79835 | 5068 ft | 222 kts | 138° |
| 2026-04-28 10:37 | 52.39550 | 4.80822 | 5765 ft | 235 kts | 163° |
| 2026-04-28 10:37 | 52.37932 | 4.81280 | 6515 ft | 237 kts | 165° |
| 2026-04-28 10:37 | 52.36308 | 4.81742 | 7255 ft | 238 kts | 165° |
| 2026-04-28 10:38 | 52.34673 | 4.82224 | 7950 ft | 240 kts | 165° |
| 2026-04-28 10:38 | 52.33010 | 4.82711 | 8534 ft | 251 kts | 166° |
| 2026-04-28 10:38 | 52.31208 | 4.83227 | 8810 ft | 272 kts | 167° |
| 2026-04-28 10:38 | 52.29312 | 4.83765 | 9484 ft | 278 kts | 166° |
| 2026-04-28 10:39 | 52.27408 | 4.84305 | 10366 ft | 278 kts | 167° |
| 2026-04-28 10:39 | 52.25504 | 4.85122 | 10754 ft | 292 kts | 150° |
| 2026-04-28 10:39 | 52.23811 | 4.87114 | 10936 ft | 311 kts | 139° |
| 2026-04-28 10:39 | 52.22078 | 4.89412 | 11238 ft | 329 kts | 139° |
| 2026-04-28 10:40 | 52.20272 | 4.91801 | 11760 ft | 338 kts | 139° |
| 2026-04-28 10:40 | 52.18431 | 4.94217 | 12515 ft | 339 kts | 139° |
| 2026-04-28 10:40 | 52.16582 | 4.96625 | 13387 ft | 340 kts | 139° |
| 2026-04-28 10:40 | 52.14724 | 4.99035 | 14126 ft | 345 kts | 140° |
| 2026-04-28 10:41 | 52.12823 | 5.01494 | 14707 ft | 352 kts | 140° |
| 2026-04-28 10:41 | 52.10903 | 5.03968 | 15304 ft | 357 kts | 141° |
| 2026-04-28 10:41 | 52.08785 | 5.06014 | 16242 ft | 358 kts | 158° |
| 2026-04-28 10:41 | 52.06365 | 5.07133 | 16883 ft | 365 kts | 163° |
| 2026-04-28 10:42 | 52.03900 | 5.08166 | 17663 ft | 366 kts | 163° |
| 2026-04-28 10:42 | 52.01432 | 5.09214 | 18359 ft | 370 kts | 163° |
| 2026-04-28 10:42 | 51.98924 | 5.10307 | 18887 ft | 376 kts | 163° |
| 2026-04-28 10:42 | 51.96413 | 5.11420 | 19681 ft | 373 kts | 163° |
| 2026-04-28 10:43 | 51.93890 | 5.12544 | 20175 ft | 380 kts | 163° |
| 2026-04-28 10:43 | 51.91319 | 5.13691 | 20673 ft | 386 kts | 163° |
| 2026-04-28 10:43 | 51.88713 | 5.14850 | 21237 ft | 389 kts | 163° |
| 2026-04-28 10:43 | 51.86107 | 5.16007 | 22000 ft | 387 kts | 163° |
| 2026-04-28 10:44 | 51.83497 | 5.17164 | 22575 ft | 390 kts | 163° |
| 2026-04-28 10:44 | 51.80867 | 5.18329 | 23119 ft | 394 kts | 164° |
| 2026-04-28 10:44 | 51.78213 | 5.19504 | 23657 ft | 397 kts | 163° |
| 2026-04-28 10:44 | 51.75572 | 5.20672 | 24093 ft | 400 kts | 163° |
| 2026-04-28 10:45 | 51.72834 | 5.21881 | 24456 ft | 405 kts | 164° |
| 2026-04-28 10:45 | 51.70103 | 5.23085 | 24841 ft | 410 kts | 164° |
| 2026-04-28 10:45 | 51.67349 | 5.24299 | 25322 ft | 410 kts | 165° |
| 2026-04-28 10:45 | 51.64625 | 5.25497 | 25680 ft | 414 kts | 165° |
| 2026-04-28 10:46 | 51.61829 | 5.26725 | 26083 ft | 417 kts | 165° |
| 2026-04-28 10:46 | 51.59029 | 5.27953 | 26545 ft | 418 kts | 165° |
| 2026-04-28 10:46 | 51.56250 | 5.29171 | 27172 ft | 411 kts | 166° |
| 2026-04-28 10:46 | 51.53469 | 5.30388 | 27171 ft | 417 kts | 166° |
| 2026-04-28 10:47 | 51.50654 | 5.31620 | 27208 ft | 421 kts | 167° |
| 2026-04-28 10:47 | 51.47833 | 5.32852 | 27213 ft | 419 kts | 167° |
| 2026-04-28 10:47 | 51.45027 | 5.34076 | 27211 ft | 417 kts | 167° |
| 2026-04-28 10:47 | 51.42222 | 5.35297 | 27212 ft | 418 kts | 166° |
| 2026-04-28 10:48 | 51.39415 | 5.36518 | 27216 ft | 418 kts | 167° |
| 2026-04-28 10:48 | 51.36605 | 5.37741 | 27207 ft | 419 kts | 166° |
| 2026-04-28 10:48 | 51.33786 | 5.38971 | 27223 ft | 420 kts | 167° |
| 2026-04-28 10:48 | 51.30964 | 5.40201 | 27220 ft | 421 kts | 167° |
| 2026-04-28 10:49 | 51.28136 | 5.41431 | 27225 ft | 422 kts | 166° |
| 2026-04-28 10:49 | 51.25293 | 5.42609 | 27216 ft | 422 kts | 169° |
| 2026-04-28 10:49 | 51.22456 | 5.43579 | 27222 ft | 421 kts | 170° |
| 2026-04-28 10:49 | 51.19582 | 5.44506 | 27210 ft | 421 kts | 171° |
| 2026-04-28 10:50 | 51.16715 | 5.45496 | 27199 ft | 422 kts | 168° |
| 2026-04-28 10:50 | 51.14793 | 5.46278 | 27205 ft | 422 kts | 167° |
| 2026-04-28 10:50 | 51.11043 | 5.47939 | 27201 ft | 422 kts | 166° |
| 2026-04-28 10:50 | 51.08221 | 5.49222 | 27203 ft | 422 kts | 166° |
| 2026-04-28 10:51 | 51.05399 | 5.50496 | 27200 ft | 422 kts | 166° |
| 2026-04-28 10:51 | 51.02575 | 5.51755 | 27200 ft | 421 kts | 167° |
| 2026-04-28 10:51 | 50.99752 | 5.52998 | 27201 ft | 421 kts | 166° |
| 2026-04-28 10:51 | 50.96926 | 5.54233 | 27194 ft | 421 kts | 167° |
| 2026-04-28 10:52 | 50.94105 | 5.55460 | 27187 ft | 421 kts | 167° |
| 2026-04-28 10:52 | 50.91302 | 5.56676 | 27175 ft | 413 kts | 167° |
| 2026-04-28 10:52 | 50.88557 | 5.57867 | 26857 ft | 405 kts | 167° |
| 2026-04-28 10:52 | 50.85902 | 5.59017 | 26486 ft | 398 kts | 167° |
| 2026-04-28 10:53 | 50.83245 | 5.60165 | 26062 ft | 393 kts | 167° |
| 2026-04-28 10:53 | 50.80616 | 5.61299 | 25599 ft | 389 kts | 166° |
| 2026-04-28 10:53 | 50.78016 | 5.62420 | 25152 ft | 386 kts | 166° |
| 2026-04-28 10:53 | 50.75436 | 5.63530 | 24684 ft | 382 kts | 167° |
| 2026-04-28 10:54 | 50.72878 | 5.64632 | 24247 ft | 380 kts | 167° |
| 2026-04-28 10:54 | 50.70339 | 5.65724 | 23792 ft | 377 kts | 167° |
| 2026-04-28 10:54 | 50.67822 | 5.66808 | 23314 ft | 374 kts | 167° |
| 2026-04-28 10:54 | 50.65339 | 5.67924 | 22944 ft | 368 kts | 166° |
| 2026-04-28 10:55 | 50.62889 | 5.69046 | 22508 ft | 364 kts | 166° |
| 2026-04-28 10:55 | 50.60464 | 5.70152 | 22064 ft | 363 kts | 166° |
| 2026-04-28 10:55 | 50.58041 | 5.71273 | 21641 ft | 361 kts | 164° |
| 2026-04-28 10:55 | 50.55676 | 5.72567 | 21241 ft | 359 kts | 162° |
| 2026-04-28 10:56 | 50.53338 | 5.73956 | 20805 ft | 359 kts | 161° |
| 2026-04-28 10:56 | 50.51036 | 5.75348 | 20378 ft | 358 kts | 161° |
| 2026-04-28 10:56 | 50.48715 | 5.76748 | 19940 ft | 355 kts | 161° |
| 2026-04-28 10:56 | 50.46419 | 5.78120 | 19518 ft | 352 kts | 161° |
| 2026-04-28 10:57 | 50.44131 | 5.79475 | 19095 ft | 349 kts | 161° |
| 2026-04-28 10:57 | 50.41863 | 5.80809 | 18686 ft | 347 kts | 161° |
| 2026-04-28 10:57 | 50.39605 | 5.82131 | 18249 ft | 345 kts | 161° |
| 2026-04-28 10:57 | 50.37362 | 5.83441 | 17781 ft | 343 kts | 161° |
| 2026-04-28 10:58 | 50.35136 | 5.84739 | 17360 ft | 340 kts | 161° |
| 2026-04-28 10:58 | 50.32936 | 5.86022 | 16944 ft | 336 kts | 161° |
| 2026-04-28 10:58 | 50.30754 | 5.87291 | 16547 ft | 333 kts | 161° |
| 2026-04-28 10:58 | 50.28585 | 5.88551 | 16134 ft | 331 kts | 161° |
| 2026-04-28 10:59 | 50.26434 | 5.89799 | 15719 ft | 330 kts | 161° |
| 2026-04-28 10:59 | 50.24285 | 5.91046 | 15321 ft | 329 kts | 161° |
| 2026-04-28 10:59 | 50.22148 | 5.92287 | 14935 ft | 326 kts | 161° |
| 2026-04-28 10:59 | 50.20027 | 5.93517 | 14533 ft | 325 kts | 161° |
| 2026-04-28 11:00 | 50.17915 | 5.94738 | 14146 ft | 322 kts | 161° |
| 2026-04-28 11:00 | 50.15818 | 5.95947 | 13740 ft | 320 kts | 160° |
| 2026-04-28 11:00 | 50.13738 | 5.97148 | 13293 ft | 318 kts | 160° |
| 2026-04-28 11:00 | 50.11669 | 5.98339 | 12892 ft | 315 kts | 160° |
| 2026-04-28 11:01 | 50.09624 | 5.99517 | 12505 ft | 312 kts | 160° |
| 2026-04-28 11:01 | 50.07599 | 6.00681 | 12121 ft | 309 kts | 160° |
| 2026-04-28 11:01 | 50.05603 | 6.01828 | 11717 ft | 311 kts | 159° |
| 2026-04-28 11:01 | 50.03565 | 6.02998 | 11334 ft | 313 kts | 159° |
| 2026-04-28 11:02 | 50.01525 | 6.04171 | 10926 ft | 312 kts | 159° |
| 2026-04-28 11:02 | 49.99498 | 6.05331 | 10668 ft | 305 kts | 159° |
| 2026-04-28 11:02 | 49.97538 | 6.06451 | 10528 ft | 295 kts | 159° |
| 2026-04-28 11:02 | 49.95642 | 6.07536 | 10391 ft | 286 kts | 158° |
| 2026-04-28 11:03 | 49.93808 | 6.08588 | 10292 ft | 277 kts | 158° |
| 2026-04-28 11:03 | 49.92021 | 6.09613 | 10147 ft | 270 kts | 158° |
| 2026-04-28 11:03 | 49.90270 | 6.10613 | 9914 ft | 269 kts | 158° |
| 2026-04-28 11:03 | 49.89106 | 6.11276 | 9696 ft | 269 kts | 158° |
| 2026-04-28 11:04 | 49.87338 | 6.12184 | 9398 ft | 268 kts | 168° |
| 2026-04-28 11:04 | 49.85477 | 6.12073 | 9118 ft | 271 kts | 192° |
| 2026-04-28 11:04 | 49.83746 | 6.10913 | 8819 ft | 273 kts | 206° |
| 2026-04-28 11:04 | 49.82117 | 6.09403 | 8531 ft | 272 kts | 208° |
| 2026-04-28 11:05 | 49.80497 | 6.07891 | 8241 ft | 272 kts | 207° |
| 2026-04-28 11:05 | 49.78873 | 6.06382 | 7966 ft | 272 kts | 206° |
| 2026-04-28 11:05 | 49.77244 | 6.04890 | 7669 ft | 272 kts | 208° |
| 2026-04-28 11:05 | 49.75613 | 6.03402 | 7375 ft | 272 kts | 206° |
| 2026-04-28 11:06 | 49.73987 | 6.01911 | 7080 ft | 271 kts | 208° |
| 2026-04-28 11:06 | 49.72364 | 6.00434 | 6787 ft | 269 kts | 207° |
| 2026-04-28 11:06 | 49.70744 | 5.98971 | 6529 ft | 270 kts | 206° |
| 2026-04-28 11:06 | 49.69121 | 5.97504 | 6227 ft | 270 kts | 208° |
| 2026-04-28 11:07 | 49.67504 | 5.96032 | 5944 ft | 269 kts | 206° |
| 2026-04-28 11:07 | 49.65891 | 5.94571 | 5700 ft | 268 kts | 207° |
| 2026-04-28 11:07 | 49.64304 | 5.93129 | 5548 ft | 261 kts | 207° |
| 2026-04-28 11:07 | 49.62806 | 5.91765 | 5455 ft | 247 kts | 206° |
| 2026-04-28 11:08 | 49.61275 | 5.90778 | 5279 ft | 226 kts | 179° |
| 2026-04-28 11:08 | 49.59802 | 5.90933 | 5219 ft | 209 kts | 163° |
| 2026-04-28 11:08 | 49.58503 | 5.91868 | 5004 ft | 206 kts | 143° |
| 2026-04-28 11:08 | 49.57309 | 5.93052 | 4772 ft | 201 kts | 143° |
| 2026-04-28 11:09 | 49.56155 | 5.94218 | 4539 ft | 197 kts | 143° |
| 2026-04-28 11:09 | 49.55030 | 5.95347 | 4358 ft | 186 kts | 140° |
| 2026-04-28 11:09 | 49.54340 | 5.96871 | 4234 ft | 172 kts | 97° |
| 2026-04-28 11:09 | 49.54606 | 5.98652 | 4116 ft | 175 kts | 70° |
| 2026-04-28 11:10 | 49.55076 | 6.00363 | 3882 ft | 173 kts | 69° |
| 2026-04-28 11:10 | 49.55594 | 6.02024 | 3651 ft | 172 kts | 68° |
| 2026-04-28 11:10 | 49.56141 | 6.03636 | 3428 ft | 167 kts | 63° |
| 2026-04-28 11:10 | 49.56706 | 6.05171 | 3198 ft | 164 kts | 65° |
| 2026-04-28 11:11 | 49.57268 | 6.06663 | 2993 ft | 157 kts | 58° |
| 2026-04-28 11:11 | 49.57859 | 6.08054 | 2792 ft | 150 kts | 63° |
| 2026-04-28 11:11 | 49.58325 | 6.09424 | 2631 ft | 138 kts | 63° |
| 2026-04-28 11:11 | 49.58772 | 6.10682 | 2414 ft | 130 kts | 62° |
| 2026-04-28 11:12 | 49.59214 | 6.11886 | 2255 ft | 131 kts | 61° |
| 2026-04-28 11:12 | 49.59658 | 6.13087 | 2068 ft | 128 kts | 59° |
| 2026-04-28 11:12 | 49.60098 | 6.14277 | 1886 ft | 126 kts | 61° |
| 2026-04-28 11:12 | 49.60527 | 6.15440 | 1739 ft | 127 kts | 59° |
| 2026-04-28 11:13 | 49.60982 | 6.16667 | 1523 ft | 136 kts | 60° |
| 2026-04-28 11:13 | 49.61440 | 6.17917 | 1320 ft | 135 kts | 58° |
| 2026-04-28 11:13 | 49.61848 | 6.19129 | 1438 ft | 132 kts | 57° |
| 2026-04-28 11:13 | 49.62328 | 6.20384 | 2288 ft | 141 kts | 59° |
| 2026-04-28 11:14 | 49.62916 | 6.21794 | 3095 ft | 174 kts | 59° |
| 2026-04-28 11:14 | 49.63677 | 6.23362 | 4222 ft | 183 kts | 54° |
| 2026-04-28 11:14 | 49.64503 | 6.24689 | 5786 ft | 159 kts | 49° |
| 2026-04-28 11:14 | 49.65221 | 6.25930 | 6937 ft | 157 kts | 60° |
| 2026-04-28 11:15 | 49.65784 | 6.27544 | 7373 ft | 192 kts | 75° |
| 2026-04-28 11:15 | 49.66052 | 6.29750 | 7701 ft | 220 kts | 88° |
| 2026-04-28 11:15 | 49.65946 | 6.31981 | 8974 ft | 192 kts | 107° |
| 2026-04-28 11:15 | 49.65380 | 6.33648 | 10315 ft | 171 kts | 135° |
| 2026-04-28 11:16 | 49.64404 | 6.34770 | 11022 ft | 179 kts | 133° |
| 2026-04-28 11:16 | 49.63801 | 6.36678 | 10912 ft | 232 kts | 96° |
| 2026-04-28 11:16 | 49.64226 | 6.39256 | 10642 ft | 268 kts | 60° |
| 2026-04-28 11:16 | 49.65648 | 6.41156 | 10315 ft | 279 kts | 25° |
| 2026-04-28 11:17 | 49.67550 | 6.41541 | 9982 ft | 288 kts | 352° |
| 2026-04-28 11:17 | 49.69401 | 6.40346 | 9650 ft | 290 kts | 332° |
| 2026-04-28 11:17 | 49.71284 | 6.39433 | 9543 ft | 277 kts | 356° |
| 2026-04-28 11:17 | 49.73162 | 6.38826 | 9349 ft | 283 kts | 336° |
| 2026-04-28 11:18 | 49.74829 | 6.37136 | 8980 ft | 291 kts | 316° |
| 2026-04-28 11:18 | 49.76082 | 6.34672 | 8586 ft | 292 kts | 304° |
| 2026-04-28 11:18 | 49.77216 | 6.32042 | 8194 ft | 294 kts | 303° |
| 2026-04-28 11:18 | 49.78323 | 6.29375 | 7799 ft | 296 kts | 296° |
| 2026-04-28 11:19 | 49.78744 | 6.26294 | 7363 ft | 296 kts | 263° |
| 2026-04-28 11:19 | 49.78060 | 6.23361 | 7028 ft | 290 kts | 234° |
| 2026-04-28 11:19 | 49.76855 | 6.20864 | 6661 ft | 289 kts | 229° |
| 2026-04-28 11:19 | 49.75752 | 6.18768 | 6285 ft | 285 kts | 227° |
| 2026-04-28 11:20 | 49.75081 | 6.17506 | 6056 ft | 282 kts | 228° |
| 2026-04-28 11:20 | 49.73847 | 6.15176 | 5659 ft | 278 kts | 227° |
| 2026-04-28 11:20 | 49.72635 | 6.12880 | 5440 ft | 275 kts | 227° |
| 2026-04-28 11:20 | 49.71422 | 6.10573 | 5182 ft | 277 kts | 228° |
| 2026-04-28 11:21 | 49.70214 | 6.08259 | 4984 ft | 274 kts | 227° |
| 2026-04-28 11:21 | 49.69046 | 6.06015 | 4931 ft | 261 kts | 228° |
| 2026-04-28 11:21 | 49.67935 | 6.03875 | 4780 ft | 249 kts | 227° |
| 2026-04-28 11:21 | 49.66881 | 6.01837 | 4712 ft | 237 kts | 227° |
| 2026-04-28 11:22 | 49.65879 | 5.99902 | 4644 ft | 225 kts | 227° |
| 2026-04-28 11:22 | 49.64927 | 5.98068 | 4519 ft | 213 kts | 227° |
| 2026-04-28 11:22 | 49.64015 | 5.96317 | 4330 ft | 210 kts | 227° |
| 2026-04-28 11:22 | 49.63117 | 5.94596 | 4072 ft | 204 kts | 227° |
| 2026-04-28 11:23 | 49.62254 | 5.92934 | 4090 ft | 197 kts | 226° |
| 2026-04-28 11:23 | 49.61351 | 5.91328 | 4081 ft | 200 kts | 213° |
| 2026-04-28 11:23 | 49.60087 | 5.90750 | 4081 ft | 190 kts | 164° |
| 2026-04-28 11:23 | 49.58900 | 5.91484 | 4121 ft | 181 kts | 146° |
| 2026-04-28 11:24 | 49.57835 | 5.92507 | 4115 ft | 180 kts | 143° |
| 2026-04-28 11:24 | 49.56776 | 5.93567 | 4149 ft | 182 kts | 142° |
| 2026-04-28 11:24 | 49.55709 | 5.94638 | 4108 ft | 182 kts | 143° |
| 2026-04-28 11:24 | 49.54724 | 5.95793 | 4015 ft | 181 kts | 124° |
| 2026-04-28 11:25 | 49.54455 | 5.97563 | 3827 ft | 171 kts | 77° |
| 2026-04-28 11:25 | 49.54861 | 5.99204 | 3713 ft | 158 kts | 70° |
| 2026-04-28 11:25 | 49.55278 | 6.00741 | 3564 ft | 152 kts | 70° |
| 2026-04-28 11:25 | 49.55707 | 6.02210 | 3407 ft | 149 kts | 67° |
| 2026-04-28 11:26 | 49.56160 | 6.03622 | 3203 ft | 143 kts | 64° |
| 2026-04-28 11:26 | 49.56624 | 6.04914 | 3177 ft | 139 kts | 67° |
| 2026-04-28 11:26 | 49.57080 | 6.06228 | 3057 ft | 135 kts | 59° |
| 2026-04-28 11:26 | 49.57589 | 6.07411 | 2860 ft | 129 kts | 61° |
| 2026-04-28 11:27 | 49.58020 | 6.08595 | 2713 ft | 127 kts | 63° |
| 2026-04-28 11:27 | 49.58439 | 6.09779 | 2561 ft | 128 kts | 63° |
| 2026-04-28 11:27 | 49.58873 | 6.10959 | 2363 ft | 121 kts | 62° |
| 2026-04-28 11:27 | 49.59292 | 6.12105 | 2226 ft | 124 kts | 61° |
| 2026-04-28 11:28 | 49.59703 | 6.13249 | 2027 ft | 119 kts | 60° |
| 2026-04-28 11:28 | 49.60128 | 6.14380 | 1733 ft | 124 kts | 59° |
| 2026-04-28 11:28 | 49.60532 | 6.15513 | 1542 ft | 120 kts | 59° |
| 2026-04-28 11:28 | 49.60965 | 6.16657 | 1464 ft | 125 kts | 58° |
| 2026-04-28 11:29 | 49.61387 | 6.17774 | 1429 ft | 112 kts | 60° |
| 2026-04-28 11:29 | 49.61751 | 6.18775 | 1191 ft | 104 kts | 58° |
| 2026-04-28 11:29 | 49.62078 | 6.19631 | 1189 ft | 79 kts | 59° |
| 2026-04-28 11:29 | 49.62290 | 6.20199 | 1220 ft | 43 kts | 60° |
| 2026-04-28 11:30 | 49.62415 | 6.20514 | 1229 ft | 30 kts | 47° |
| 2026-04-28 11:30 | 49.62739 | 6.20737 | 1242 ft | 24 kts | 20° |
| 2026-04-28 11:30 | 49.62850 | 6.20904 | 1237 ft | 24 kts | 64° |
| 2026-04-28 11:31 | 49.62921 | 6.21126 | 1232 ft | 23 kts | 60° |
| 2026-04-28 11:31 | 49.62978 | 6.21321 | 1230 ft | 8 kts | 62° |
| 2026-04-28 11:31 | 49.63011 | 6.21409 | 1227 ft | 10 kts | 66° |
| 2026-04-28 11:31 | 49.63038 | 6.21511 | 1226 ft | 10 kts | 66° |
| 2026-04-28 11:32 | 49.63070 | 6.21614 | 1225 ft | 11 kts | 47° |
| 2026-04-28 11:32 | 49.63146 | 6.21603 | 1229 ft | 13 kts | 329° |
| 2026-04-28 11:32 | 49.63245 | 6.21533 | 1229 ft | 15 kts | 11° |
| 2026-04-28 11:32 | 49.63272 | 6.21582 | 1229 ft | 3 kts | 69° |
| 2026-04-28 11:33 | 49.63296 | 6.21587 | 1229 ft | 4 kts | 342° |
| 2026-04-28 11:33 | 49.63321 | 6.21567 | 1229 ft | 4 kts | 329° |
| 2026-04-28 11:33 | 49.63332 | 6.21557 | 1229 ft | 0 kts | 330° |